Time;durP1;ratioP1;P1;durP2;ratioP2;P2;SDS_P1;SDS_P2;PMS_P1;PMS_P2;Temp;Humidity;BMP_temperature;BMP_pressure;BME280_temperature;BME280_humidity;BME280_pressure;Samples;Min_cycle;Max_cycle;Signal;HPM_P1;HPM_P2
2022/12/23 00:01:27;;;;;;;1.20;1.00;;;8.40;99.90;;;;;;4949437;28;20214;-69
2022/12/23 00:03:57;;;;;;;1.42;1.00;;;8.40;99.90;;;;;;4949475;28;20215;-69
2022/12/23 00:06:25;;;;;;;1.13;1.02;;;8.40;99.90;;;;;;4949333;28;20309;-68
2022/12/23 00:08:56;;;;;;;1.10;0.98;;;8.40;99.90;;;;;;4948514;28;20235;-69
2022/12/23 00:11:25;;;;;;;1.10;0.90;;;8.40;99.90;;;;;;4949549;28;20212;-68
2022/12/23 00:16:36;;;;;;;1.70;1.23;;;8.40;99.90;;;;;;4952377;29;20195;-68
2022/12/23 00:19:04;;;;;;;0.98;0.88;;;8.40;99.90;;;;;;4953115;28;20671;-67
2022/12/23 00:21:31;;;;;;;1.90;0.80;;;8.40;99.90;;;;;;4953529;28;20206;-68
2022/12/23 00:23:57;;;;;;;1.65;0.90;;;8.40;99.90;;;;;;4953113;28;20203;-69
2022/12/23 00:26:27;;;;;;;0.90;0.90;;;8.30;99.90;;;;;;4952862;28;20231;-68
2022/12/23 00:28:56;;;;;;;1.50;0.95;;;8.40;99.90;;;;;;4952524;28;20229;-69
2022/12/23 00:31:23;;;;;;;3.85;1.05;;;8.40;99.90;;;;;;4953040;28;20230;-68
2022/12/23 00:33:52;;;;;;;1.10;0.90;;;8.40;99.90;;;;;;4953067;28;20577;-68
2022/12/23 00:36:21;;;;;;;1.15;0.90;;;8.40;99.90;;;;;;4953261;28;20201;-68
2022/12/23 00:44:19;;;;;;;0.85;0.80;;;8.40;99.90;;;;;;4952875;29;20689;-68
2022/12/23 00:46:46;;;;;;;1.00;0.90;;;8.40;99.90;;;;;;4952386;28;20221;-69
2022/12/23 00:51:58;;;;;;;1.00;0.90;;;8.50;99.90;;;;;;4952588;29;20199;-69
2022/12/23 00:54:24;;;;;;;1.48;0.70;;;8.50;99.90;;;;;;4952844;28;20204;-68
2022/12/23 00:56:52;;;;;;;2.55;0.90;;;8.50;99.90;;;;;;4952501;28;20306;-69
2022/12/23 00:59:19;;;;;;;1.17;1.00;;;8.50;99.90;;;;;;4951938;28;20209;-69
2022/12/23 01:07:14;;;;;;;1.10;0.90;;;8.70;99.90;;;;;;4952781;29;20223;-68
2022/12/23 01:09:41;;;;;;;0.90;0.80;;;8.70;99.90;;;;;;4952071;28;20214;-68
2022/12/23 01:12:09;;;;;;;1.15;1.05;;;8.70;99.90;;;;;;4952358;28;20200;-68
2022/12/23 01:14:36;;;;;;;1.13;0.80;;;8.70;99.90;;;;;;4952301;28;20226;-68
2022/12/23 01:17:03;;;;;;;0.90;0.80;;;8.70;99.90;;;;;;4952915;28;20615;-67
2022/12/23 01:19:29;;;;;;;1.10;1.00;;;8.70;99.90;;;;;;4953532;28;20618;-70
2022/12/23 01:21:56;;;;;;;1.85;1.15;;;8.70;99.90;;;;;;4953222;28;20208;-70
2022/12/23 01:24:23;;;;;;;1.48;1.08;;;8.80;99.90;;;;;;4955527;28;20203;-70
2022/12/23 01:26:50;;;;;;;1.45;1.02;;;8.80;99.90;;;;;;4974120;28;20723;-70
2022/12/23 01:29:18;;;;;;;1.20;1.00;;;8.80;99.90;;;;;;4973754;28;20235;-70
2022/12/23 01:31:44;;;;;;;1.10;1.00;;;8.80;99.90;;;;;;4974476;28;20200;-70
2022/12/23 01:34:11;;;;;;;0.95;0.85;;;8.80;99.90;;;;;;4974439;28;20214;-70
2022/12/23 01:36:38;;;;;;;1.15;1.05;;;8.90;99.90;;;;;;4974342;28;20211;-70
2022/12/23 01:39:05;;;;;;;1.13;0.90;;;8.90;99.90;;;;;;4973503;28;20233;-70
2022/12/23 01:44:48;;;;;;;3.50;1.10;;;9.00;99.90;;;;;;4974324;28;20204;-70
2022/12/23 01:47:20;;;;;;;2.65;1.00;;;8.90;99.90;;;;;;4973872;28;20245;-70
2022/12/23 01:49:48;;;;;;;1.60;1.20;;;8.90;99.90;;;;;;4973636;28;20214;-70
2022/12/23 01:52:15;;;;;;;0.95;0.85;;;9.00;99.90;;;;;;4973805;28;21037;-69
2022/12/23 01:54:43;;;;;;;1.25;0.90;;;9.00;99.90;;;;;;4974102;28;20339;-69
2022/12/23 01:57:10;;;;;;;2.45;1.00;;;9.00;99.90;;;;;;4973649;28;20207;-70
2022/12/23 02:04:34;;;;;;;1.10;1.00;;;9.10;99.90;;;;;;4983168;23;20888;-70
2022/12/23 02:09:45;;;;;;;1.35;1.00;;;9.10;99.90;;;;;;4973323;28;20202;-70
2022/12/23 02:12:44;;;;;;;0.80;0.70;;;9.10;99.90;;;;;;4973590;28;20212;-70
2022/12/23 02:18:32;;;;;;;0.80;0.70;;;9.20;99.90;;;;;;4972769;28;20261;-70
2022/12/23 02:21:27;;;;;;;0.90;0.80;;;9.20;99.90;;;;;;4973576;28;20234;-70
2022/12/23 02:24:35;;;;;;;0.80;0.80;;;9.30;99.90;;;;;;4970891;28;20630;-69
2022/12/23 02:27:23;;;;;;;1.05;0.82;;;9.30;99.90;;;;;;4972686;28;20231;-70
2022/12/23 02:30:21;;;;;;;1.85;0.90;;;9.30;99.90;;;;;;4972465;28;20211;-69
2022/12/23 02:33:00;;;;;;;0.70;0.70;;;9.30;99.90;;;;;;4973169;28;20207;-69
2022/12/23 02:35:33;;;;;;;0.82;0.80;;;9.40;99.90;;;;;;4973354;28;20203;-69
2022/12/23 02:38:09;;;;;;;0.90;0.80;;;9.40;99.90;;;;;;4972441;28;20227;-70
2022/12/23 02:40:40;;;;;;;2.35;1.10;;;9.40;99.90;;;;;;4973118;28;20206;-70
2022/12/23 02:43:14;;;;;;;0.90;0.80;;;9.40;99.90;;;;;;4973152;28;20207;-68
2022/12/23 02:45:46;;;;;;;1.00;0.70;;;9.40;99.90;;;;;;4972847;28;20695;-69
2022/12/23 02:48:16;;;;;;;1.00;0.90;;;9.40;99.90;;;;;;4972619;28;20232;-69
2022/12/23 02:50:46;;;;;;;0.80;0.70;;;9.40;99.90;;;;;;4973012;28;20217;-69
2022/12/23 02:53:18;;;;;;;0.90;0.80;;;9.50;99.90;;;;;;4972641;28;20208;-70
2022/12/23 02:55:48;;;;;;;1.38;0.68;;;9.50;99.90;;;;;;4972901;28;20560;-69
2022/12/23 02:58:18;;;;;;;0.80;0.70;;;9.50;99.90;;;;;;4972152;28;20231;-70
2022/12/23 03:00:48;;;;;;;1.00;0.90;;;9.50;99.90;;;;;;4972660;28;20694;-69
2022/12/23 03:03:15;;;;;;;0.90;0.75;;;9.50;99.90;;;;;;4972427;28;20312;-69
2022/12/23 03:05:45;;;;;;;1.08;0.68;;;9.60;99.90;;;;;;4972724;28;20238;-69
2022/12/23 03:08:15;;;;;;;0.70;0.70;;;9.60;99.90;;;;;;4972002;28;20228;-70
2022/12/23 03:10:55;;;;;;;1.20;0.80;;;9.60;99.90;;;;;;4972793;28;20604;-69
2022/12/23 03:13:32;;;;;;;0.90;0.80;;;9.60;99.90;;;;;;4972471;28;20239;-69
2022/12/23 03:16:09;;;;;;;0.80;0.73;;;9.60;99.90;;;;;;4972231;28;20203;-69
2022/12/23 03:18:46;;;;;;;1.00;0.90;;;9.70;99.90;;;;;;4971914;28;20220;-68
2022/12/23 03:21:22;;;;;;;1.08;0.70;;;9.70;99.90;;;;;;4972273;28;20214;-69
2022/12/23 03:23:54;;;;;;;1.00;0.80;;;9.70;99.90;;;;;;4972091;28;20213;-69
2022/12/23 03:26:26;;;;;;;0.80;0.70;;;9.70;99.90;;;;;;4972455;28;20709;-69
2022/12/23 03:28:57;;;;;;;0.70;0.70;;;9.70;99.90;;;;;;4971885;28;20227;-69
2022/12/23 03:31:29;;;;;;;0.70;0.70;;;9.80;99.90;;;;;;4972403;28;20672;-68
2022/12/23 03:34:00;;;;;;;0.80;0.60;;;9.80;99.90;;;;;;4972323;28;20680;-69
2022/12/23 03:36:31;;;;;;;0.70;0.60;;;9.80;99.90;;;;;;4972225;28;20195;-68
2022/12/23 03:38:59;;;;;;;1.08;0.70;;;9.80;99.90;;;;;;4971405;28;20230;-68
2022/12/23 03:41:30;;;;;;;1.10;0.90;;;9.80;99.90;;;;;;4972169;28;20587;-69
2022/12/23 03:44:02;;;;;;;0.75;0.68;;;9.80;99.90;;;;;;4971857;28;20230;-67
2022/12/23 03:46:34;;;;;;;0.80;0.70;;;9.80;99.90;;;;;;4972001;28;20230;-68
2022/12/23 03:49:03;;;;;;;0.80;0.70;;;9.90;99.90;;;;;;4971133;28;20219;-68
2022/12/23 03:51:36;;;;;;;1.70;0.70;;;9.90;99.90;;;;;;4971377;28;20207;-68
2022/12/23 03:54:08;;;;;;;1.08;0.73;;;9.90;99.90;;;;;;4972099;28;20203;-68
2022/12/23 03:56:39;;;;;;;0.75;0.70;;;9.90;99.90;;;;;;4971843;28;20205;-68
2022/12/23 03:59:11;;;;;;;1.38;0.90;;;9.90;99.90;;;;;;4971039;28;20231;-69
2022/12/23 04:01:46;;;;;;;1.45;0.75;;;9.90;99.90;;;;;;4971871;28;20208;-69
2022/12/23 04:04:21;;;;;;;0.80;0.70;;;9.90;99.90;;;;;;4971701;28;20215;-68
2022/12/23 04:06:55;;;;;;;0.80;0.80;;;10.00;99.90;;;;;;4971867;28;20223;-68
2022/12/23 04:09:24;;;;;;;4.65;0.82;;;9.90;99.90;;;;;;4971380;28;20587;-69
2022/12/23 04:11:51;;;;;;;0.90;0.80;;;10.00;99.90;;;;;;4971701;28;20214;-69
2022/12/23 04:14:19;;;;;;;0.93;0.80;;;10.00;99.90;;;;;;4971689;28;20660;-69
2022/12/23 04:16:49;;;;;;;0.80;0.70;;;9.90;99.90;;;;;;4971746;28;20611;-69
2022/12/23 04:19:16;;;;;;;0.95;0.80;;;10.00;99.90;;;;;;4970843;28;20247;-69
2022/12/23 04:21:43;;;;;;;0.80;0.70;;;10.00;99.90;;;;;;4971696;28;20675;-68
2022/12/23 04:24:09;;;;;;;1.00;0.73;;;10.00;99.90;;;;;;4971306;28;20223;-69
2022/12/23 04:26:36;;;;;;;1.05;0.90;;;10.00;99.90;;;;;;4971268;28;20231;-69
2022/12/23 04:29:04;;;;;;;1.10;1.00;;;10.00;99.90;;;;;;4970904;28;20219;-69
2022/12/23 04:31:30;;;;;;;0.90;0.80;;;10.00;99.90;;;;;;4971828;28;20211;-69
2022/12/23 04:33:59;;;;;;;0.80;0.70;;;10.00;99.90;;;;;;4971302;28;20204;-68
2022/12/23 04:36:26;;;;;;;0.70;0.60;;;10.00;99.90;;;;;;4946706;28;20193;-69
2022/12/23 04:38:52;;;;;;;0.90;0.80;;;10.00;99.90;;;;;;4950980;28;20212;-70
2022/12/23 04:41:19;;;;;;;0.80;0.70;;;10.00;99.90;;;;;;4936601;28;20206;-70
2022/12/23 04:43:46;;;;;;;0.95;0.85;;;10.00;99.90;;;;;;4932750;29;20193;-70
2022/12/23 04:46:13;;;;;;;1.45;0.75;;;10.00;99.90;;;;;;4932381;29;20696;-69
2022/12/23 04:48:39;;;;;;;0.85;0.80;;;10.00;99.90;;;;;;4934626;29;20309;-70
2022/12/23 04:51:07;;;;;;;0.98;0.77;;;10.00;99.90;;;;;;4948684;28;20217;-70
2022/12/23 04:53:36;;;;;;;0.85;0.70;;;10.00;99.90;;;;;;4950735;28;20293;-69
2022/12/23 04:56:03;;;;;;;0.80;0.73;;;10.00;99.90;;;;;;4948055;29;20582;-69
2022/12/23 04:58:29;;;;;;;1.33;0.90;;;9.90;99.90;;;;;;4943569;28;20763;-69
2022/12/23 05:01:02;;;;;;;1.63;1.08;;;9.80;99.90;;;;;;4952265;28;20204;-70
2022/12/23 05:03:29;;;;;;;1.55;0.90;;;9.80;99.90;;;;;;4955708;28;20273;-69
2022/12/23 05:05:56;;;;;;;0.80;0.70;;;9.80;99.90;;;;;;4944706;28;20223;-69
2022/12/23 05:08:24;;;;;;;1.05;0.80;;;9.80;99.90;;;;;;4935203;29;20225;-69
2022/12/23 05:10:51;;;;;;;1.20;1.00;;;9.80;99.90;;;;;;4936320;29;20209;-70
2022/12/23 05:13:18;;;;;;;1.00;0.90;;;9.80;99.90;;;;;;4947678;29;20581;-69
2022/12/23 05:15:45;;;;;;;1.30;1.00;;;9.80;99.90;;;;;;4945681;28;20202;-70
2022/12/23 05:18:12;;;;;;;1.00;0.90;;;9.80;99.90;;;;;;4941026;29;20239;-70
2022/12/23 05:20:39;;;;;;;1.45;1.15;;;9.80;99.90;;;;;;4936094;29;20193;-71
2022/12/23 05:23:06;;;;;;;2.08;0.95;;;9.80;99.90;;;;;;4937623;29;20220;-71
2022/12/23 05:25:35;;;;;;;1.00;0.90;;;9.80;99.90;;;;;;4954198;28;20468;-68
2022/12/23 05:28:02;;;;;;;0.90;0.75;;;9.80;99.90;;;;;;4937469;28;20228;-69
2022/12/23 05:30:29;;;;;;;1.17;1.00;;;9.80;99.90;;;;;;4940866;29;20200;-69
2022/12/23 05:32:56;;;;;;;0.98;0.88;;;9.80;99.90;;;;;;4955479;28;20582;-69
2022/12/23 05:35:25;;;;;;;0.82;0.70;;;9.90;99.90;;;;;;4955404;28;20205;-69
2022/12/23 05:37:52;;;;;;;1.00;0.90;;;9.90;99.90;;;;;;4955048;28;20224;-68
2022/12/23 05:40:19;;;;;;;1.13;0.90;;;10.00;99.90;;;;;;4954539;28;20233;-69
2022/12/23 05:42:47;;;;;;;1.05;0.93;;;10.00;99.90;;;;;;4949263;28;20200;-69
2022/12/23 05:45:14;;;;;;;1.00;0.80;;;10.00;99.90;;;;;;4955100;28;20216;-70
2022/12/23 05:47:40;;;;;;;0.80;0.70;;;10.00;99.90;;;;;;4955029;28;20228;-69
2022/12/23 05:50:08;;;;;;;0.80;0.70;;;10.10;99.90;;;;;;4954259;28;20205;-69
2022/12/23 05:52:35;;;;;;;0.88;0.80;;;10.10;99.90;;;;;;4954903;28;20245;-68
2022/12/23 05:55:02;;;;;;;1.00;0.70;;;10.10;99.90;;;;;;4954534;28;20207;-69
2022/12/23 05:57:29;;;;;;;0.80;0.70;;;10.10;99.90;;;;;;4954733;28;20231;-69
2022/12/23 05:59:57;;;;;;;0.98;0.88;;;10.10;99.90;;;;;;4954169;28;20236;-68
2022/12/23 06:02:23;;;;;;;3.05;0.90;;;10.10;99.90;;;;;;4954441;28;20219;-69
2022/12/23 06:04:50;;;;;;;0.80;0.70;;;10.10;99.90;;;;;;4954688;28;20216;-68
2022/12/23 06:07:17;;;;;;;1.10;0.70;;;10.10;99.90;;;;;;4953946;28;20225;-69
2022/12/23 06:09:44;;;;;;;0.90;0.80;;;10.10;99.90;;;;;;4953929;28;20208;-70
2022/12/23 06:12:11;;;;;;;0.90;0.80;;;10.10;99.90;;;;;;4953931;28;20208;-70
2022/12/23 06:14:37;;;;;;;0.90;0.75;;;10.10;99.90;;;;;;4954044;28;20212;-70
2022/12/23 06:17:05;;;;;;;1.10;0.80;;;10.10;99.90;;;;;;4954167;28;20205;-70
2022/12/23 06:19:32;;;;;;;1.45;0.80;;;10.10;99.90;;;;;;4954057;28;20208;-70
2022/12/23 06:21:59;;;;;;;1.27;1.13;;;10.10;99.90;;;;;;4954166;28;20614;-70
2022/12/23 06:24:26;;;;;;;1.10;0.80;;;10.10;99.90;;;;;;4954431;28;20236;-70
2022/12/23 06:26:52;;;;;;;2.60;0.80;;;10.10;99.90;;;;;;4954322;28;20232;-69
2022/12/23 06:29:20;;;;;;;0.90;0.80;;;10.10;99.90;;;;;;4953647;28;20209;-68
2022/12/23 06:31:47;;;;;;;1.05;0.75;;;10.10;99.90;;;;;;4954483;28;20277;-68
2022/12/23 06:34:15;;;;;;;1.60;0.95;;;10.00;99.90;;;;;;4953930;28;20679;-68
2022/12/23 06:36:41;;;;;;;0.90;0.80;;;10.00;99.90;;;;;;4954451;28;20201;-68
2022/12/23 06:39:09;;;;;;;0.80;0.73;;;10.00;99.90;;;;;;4953251;28;20231;-70
2022/12/23 06:41:36;;;;;;;0.80;0.75;;;10.00;99.90;;;;;;4954587;28;20211;-70
2022/12/23 06:44:03;;;;;;;0.80;0.77;;;10.00;99.90;;;;;;4953983;28;20204;-70
2022/12/23 06:46:30;;;;;;;0.80;0.73;;;10.00;99.90;;;;;;4954251;28;20215;-69
2022/12/23 06:48:56;;;;;;;1.80;0.90;;;9.90;99.90;;;;;;4953623;28;20232;-70
2022/12/23 06:51:25;;;;;;;1.25;1.15;;;9.90;99.90;;;;;;4953875;28;20209;-70
2022/12/23 06:53:51;;;;;;;1.25;0.98;;;9.90;99.90;;;;;;4954043;28;20208;-69
2022/12/23 06:56:18;;;;;;;1.98;0.98;;;9.90;99.90;;;;;;4954264;28;20285;-70
2022/12/23 06:58:45;;;;;;;1.10;1.00;;;9.80;99.90;;;;;;4953488;28;20225;-70
2022/12/23 07:01:12;;;;;;;0.88;0.80;;;9.80;99.90;;;;;;4953651;28;20271;-70
2022/12/23 07:03:38;;;;;;;0.85;0.80;;;9.80;99.90;;;;;;4953944;28;20604;-69
2022/12/23 07:06:05;;;;;;;0.80;0.80;;;9.70;99.90;;;;;;4953543;28;20211;-70
2022/12/23 07:08:34;;;;;;;0.80;0.80;;;9.60;99.90;;;;;;4953384;28;20233;-70
2022/12/23 07:11:02;;;;;;;1.85;0.90;;;9.60;99.90;;;;;;4953826;28;20231;-69
2022/12/23 07:13:29;;;;;;;1.35;1.25;;;9.60;99.90;;;;;;4954005;28;20683;-69
2022/12/23 07:15:55;;;;;;;1.42;1.00;;;9.50;99.90;;;;;;4953717;28;20208;-69
2022/12/23 07:18:22;;;;;;;0.93;0.82;;;9.50;99.90;;;;;;4953384;28;20223;-70
2022/12/23 07:20:49;;;;;;;1.00;0.90;;;9.50;99.90;;;;;;4953404;28;20205;-69
2022/12/23 07:23:16;;;;;;;1.05;0.95;;;9.50;99.90;;;;;;4953382;28;20208;-70
2022/12/23 07:25:44;;;;;;;1.13;1.02;;;9.40;99.90;;;;;;4953498;28;20205;-70
2022/12/23 07:28:11;;;;;;;1.05;0.95;;;9.40;99.90;;;;;;4952421;28;20616;-70
2022/12/23 07:30:38;;;;;;;1.42;1.10;;;9.40;99.90;;;;;;4953245;28;20579;-69
2022/12/23 07:33:04;;;;;;;1.15;1.00;;;9.30;99.90;;;;;;4952826;28;20216;-70
2022/12/23 07:35:31;;;;;;;2.35;1.10;;;9.30;99.90;;;;;;4949036;28;20208;-69
2022/12/23 07:37:58;;;;;;;1.60;1.05;;;9.30;99.90;;;;;;4946959;28;20766;-69
2022/12/23 07:40:25;;;;;;;0.90;0.80;;;9.40;99.90;;;;;;4950096;28;20631;-70
2022/12/23 07:45:21;;;;;;;1.52;1.20;;;9.40;99.90;;;;;;4968741;28;20251;-70
2022/12/23 07:47:52;;;;;;;1.45;1.00;;;9.40;99.90;;;;;;4963492;28;20247;-70
2022/12/23 07:50:18;;;;;;;1.33;1.10;;;9.30;99.90;;;;;;4951293;29;20691;-70
2022/12/23 07:52:45;;;;;;;1.42;1.33;;;9.40;99.90;;;;;;4950840;28;20209;-69
2022/12/23 07:55:12;;;;;;;1.85;0.95;;;9.40;99.90;;;;;;4952588;29;20208;-69
2022/12/23 07:57:39;;;;;;;1.10;1.00;;;9.40;99.90;;;;;;4952309;28;20760;-70
2022/12/23 08:00:07;;;;;;;0.90;0.80;;;9.40;99.90;;;;;;4951854;29;20215;-69
2022/12/23 08:02:36;;;;;;;1.17;1.08;;;9.50;99.90;;;;;;4952325;29;20208;-70
2022/12/23 08:05:02;;;;;;;1.73;1.10;;;9.50;99.90;;;;;;4952369;29;20204;-70
2022/12/23 08:07:29;;;;;;;1.55;1.20;;;9.50;99.90;;;;;;4952078;28;20229;-69
2022/12/23 08:09:56;;;;;;;2.28;0.90;;;9.50;99.90;;;;;;4951967;29;20208;-70
2022/12/23 08:12:23;;;;;;;1.10;1.00;;;9.50;99.90;;;;;;4952790;29;20211;-69
2022/12/23 08:14:51;;;;;;;1.20;1.10;;;9.60;99.90;;;;;;4936169;28;20204;-69
2022/12/23 08:17:19;;;;;;;5.00;1.30;;;9.60;99.90;;;;;;4933784;29;20281;-70
2022/12/23 08:19:47;;;;;;;1.13;0.95;;;9.60;99.90;;;;;;4932364;29;20311;-69
2022/12/23 08:22:14;;;;;;;1.20;1.10;;;9.60;99.90;;;;;;4933104;29;20219;-69
2022/12/23 08:24:41;;;;;;;1.10;1.00;;;9.60;99.90;;;;;;4932762;29;20212;-69
2022/12/23 08:27:08;;;;;;;1.55;1.02;;;9.60;99.90;;;;;;4932890;29;20233;-69
2022/12/23 08:29:34;;;;;;;1.20;1.10;;;9.60;99.90;;;;;;4932520;29;20205;-70
2022/12/23 08:32:01;;;;;;;1.25;1.08;;;9.60;99.90;;;;;;4932889;29;20212;-68
2022/12/23 08:34:28;;;;;;;1.70;1.17;;;9.60;99.90;;;;;;4933242;29;20205;-68
2022/12/23 08:36:56;;;;;;;1.58;1.10;;;9.60;99.90;;;;;;4934338;29;20217;-69
2022/12/23 08:39:22;;;;;;;1.52;1.40;;;9.70;99.90;;;;;;4936401;29;20208;-69
2022/12/23 08:41:49;;;;;;;2.20;1.55;;;9.70;99.90;;;;;;4936252;29;20594;-69
2022/12/23 08:44:17;;;;;;;2.50;2.17;;;9.70;99.90;;;;;;4955254;28;20222;-69
2022/12/23 08:46:44;;;;;;;2.10;1.90;;;9.80;99.90;;;;;;4972992;28;20214;-69
2022/12/23 08:49:10;;;;;;;2.35;2.15;;;9.80;99.90;;;;;;4973257;28;20795;-69
2022/12/23 08:51:38;;;;;;;2.13;1.80;;;9.80;99.90;;;;;;4973388;28;20215;-68
2022/12/23 08:54:07;;;;;;;2.72;2.35;;;9.80;99.90;;;;;;4973654;28;20707;-69
2022/12/23 08:56:35;;;;;;;8.07;1.90;;;9.90;99.90;;;;;;4973365;28;20628;-69
2022/12/23 08:59:03;;;;;;;1.90;1.73;;;9.90;99.90;;;;;;4972015;28;20712;-69
2022/12/23 09:01:31;;;;;;;2.45;1.98;;;9.90;99.90;;;;;;4973531;28;20208;-69
2022/12/23 09:03:58;;;;;;;2.50;1.95;;;9.90;99.90;;;;;;4973605;28;20211;-69
2022/12/23 09:06:27;;;;;;;5.63;1.80;;;9.90;99.90;;;;;;4973263;28;20216;-68
2022/12/23 09:08:54;;;;;;;1.60;1.50;;;10.00;99.90;;;;;;4956914;28;20234;-69
2022/12/23 09:11:25;;;;;;;2.13;1.83;;;10.00;99.90;;;;;;4960970;28;20207;-69
2022/12/23 09:13:52;;;;;;;1.73;1.63;;;10.00;99.90;;;;;;4973505;28;20209;-69
2022/12/23 09:16:19;;;;;;;1.70;1.40;;;10.00;99.90;;;;;;4973177;28;20208;-69
2022/12/23 09:18:46;;;;;;;3.20;1.70;;;10.10;99.90;;;;;;4973250;28;20221;-69
2022/12/23 09:21:15;;;;;;;1.60;1.50;;;10.20;99.90;;;;;;4972637;28;20440;-69
2022/12/23 09:23:41;;;;;;;1.60;1.30;;;10.30;99.90;;;;;;4973579;28;20215;-69
2022/12/23 09:26:10;;;;;;;1.92;1.60;;;10.30;99.90;;;;;;4972967;28;20212;-69
2022/12/23 09:28:39;;;;;;;1.30;1.20;;;10.40;99.90;;;;;;4972569;28;20239;-70
2022/12/23 09:31:07;;;;;;;2.28;1.85;;;10.40;99.90;;;;;;4972805;28;20211;-69
2022/12/23 09:33:34;;;;;;;1.50;1.40;;;10.40;99.90;;;;;;4973030;28;20212;-70
2022/12/23 09:36:01;;;;;;;1.98;1.70;;;10.50;99.90;;;;;;4972541;28;20236;-69
2022/12/23 09:38:28;;;;;;;3.90;1.50;;;10.50;99.90;;;;;;4972318;28;20540;-70
2022/12/23 09:41:02;;;;;;;1.73;1.50;;;10.50;99.90;;;;;;4972958;28;20207;-69
2022/12/23 09:43:36;;;;;;;1.88;1.50;;;10.50;99.90;;;;;;4972501;28;20226;-70
2022/12/23 09:46:14;;;;;;;1.40;1.30;;;10.50;99.90;;;;;;4972924;28;20235;-70
2022/12/23 09:48:47;;;;;;;2.72;1.85;;;10.50;99.90;;;;;;4970875;28;20232;-70
2022/12/23 09:51:15;;;;;;;3.03;1.63;;;10.50;99.90;;;;;;4972765;28;20212;-68
2022/12/23 09:53:52;;;;;;;1.98;1.60;;;10.50;99.90;;;;;;4964255;28;20213;-69
2022/12/23 09:56:27;;;;;;;1.30;1.10;;;10.50;99.90;;;;;;4935670;29;20211;-69
2022/12/23 09:59:03;;;;;;;1.20;1.10;;;10.60;99.90;;;;;;4934647;29;20343;-70
2022/12/23 10:01:36;;;;;;;2.17;1.55;;;10.60;99.90;;;;;;4935599;29;20201;-69
2022/12/23 10:04:33;;;;;;;1.33;1.23;;;10.60;99.90;;;;;;4934870;29;20212;-69
2022/12/23 10:07:17;;;;;;;1.10;1.00;;;10.60;99.90;;;;;;4935362;29;20205;-70
2022/12/23 10:09:46;;;;;;;1.20;1.00;;;10.60;99.90;;;;;;4938787;28;20216;-70
2022/12/23 10:12:20;;;;;;;1.40;1.13;;;10.70;99.90;;;;;;4954526;28;20212;-70
2022/12/23 10:14:50;;;;;;;2.38;1.30;;;10.70;99.90;;;;;;4954535;28;20214;-69
2022/12/23 10:17:28;;;;;;;1.70;1.13;;;10.70;99.90;;;;;;4934792;29;20717;-69
2022/12/23 10:20:00;;;;;;;1.38;1.27;;;10.70;99.90;;;;;;4934384;29;20205;-69
2022/12/23 10:22:34;;;;;;;1.83;1.33;;;10.70;99.90;;;;;;4934531;29;20213;-69
2022/12/23 10:25:03;;;;;;;1.00;0.90;;;10.70;99.90;;;;;;4934865;29;20556;-69
2022/12/23 10:27:32;;;;;;;1.58;1.20;;;10.70;99.90;;;;;;4934417;29;20225;-70
2022/12/23 10:30:01;;;;;;;1.30;1.17;;;10.70;99.90;;;;;;4934164;29;20210;-69
2022/12/23 10:32:41;;;;;;;1.10;1.00;;;10.70;99.90;;;;;;4934448;29;20667;-69
2022/12/23 10:35:15;;;;;;;2.28;1.30;;;10.80;99.90;;;;;;4934531;29;20224;-69
2022/12/23 10:37:47;;;;;;;1.33;1.10;;;10.80;99.90;;;;;;4934366;29;20716;-69
2022/12/23 10:40:21;;;;;;;4.70;1.13;;;10.80;99.90;;;;;;4934098;29;20221;-69
2022/12/23 10:43:00;;;;;;;1.40;1.20;;;10.90;99.90;;;;;;4934848;29;20220;-69
2022/12/23 10:45:46;;;;;;;1.67;0.80;;;10.90;99.90;;;;;;4934307;29;20209;-69
2022/12/23 10:48:27;;;;;;;1.23;0.95;;;10.90;99.90;;;;;;4933840;29;20225;-68
2022/12/23 10:50:59;;;;;;;2.00;1.27;;;10.90;99.90;;;;;;4947890;28;20219;-69
2022/12/23 10:53:37;;;;;;;1.20;1.10;;;11.00;99.90;;;;;;4953786;28;20587;-68
2022/12/23 10:56:05;;;;;;;1.20;1.10;;;11.00;99.90;;;;;;4953217;28;20209;-68
2022/12/23 10:58:32;;;;;;;1.65;1.40;;;11.00;99.90;;;;;;4952821;28;20260;-69
2022/12/23 11:01:02;;;;;;;1.60;1.10;;;11.10;99.90;;;;;;4952752;28;20578;-68
2022/12/23 11:03:33;;;;;;;1.20;1.10;;;11.10;99.90;;;;;;4953579;28;20211;-68
2022/12/23 11:06:01;;;;;;;1.38;1.23;;;11.20;99.90;;;;;;4953052;28;20208;-69
2022/12/23 11:08:30;;;;;;;1.30;1.05;;;11.30;99.90;;;;;;4952694;28;20232;-69
2022/12/23 11:10:59;;;;;;;1.90;1.00;;;11.40;99.90;;;;;;4952165;28;20575;-68
2022/12/23 11:13:35;;;;;;;1.83;1.33;;;11.40;99.90;;;;;;4952980;28;20224;-68
2022/12/23 11:16:21;;;;;;;1.65;1.13;;;11.40;99.90;;;;;;4953222;28;20293;-69
2022/12/23 11:19:04;;;;;;;1.10;0.80;;;11.50;99.90;;;;;;4952226;28;20228;-68
2022/12/23 11:21:33;;;;;;;1.25;1.00;;;11.50;99.90;;;;;;4953369;28;20219;-69
2022/12/23 11:24:08;;;;;;;1.00;0.90;;;11.50;99.90;;;;;;4952712;28;20208;-68
2022/12/23 11:26:35;;;;;;;1.00;0.90;;;11.60;99.90;;;;;;4952849;28;20582;-69
2022/12/23 11:29:06;;;;;;;0.77;0.75;;;11.60;99.90;;;;;;4951969;28;20236;-68
2022/12/23 11:31:35;;;;;;;0.90;0.80;;;11.70;99.90;;;;;;4953125;28;20640;-68
2022/12/23 11:34:04;;;;;;;0.93;0.80;;;11.70;99.90;;;;;;4952811;28;20285;-70
2022/12/23 11:36:32;;;;;;;0.90;0.80;;;11.70;99.90;;;;;;4952697;28;20201;-68
2022/12/23 11:39:05;;;;;;;1.10;1.00;;;11.70;99.90;;;;;;4952311;28;20228;-70
2022/12/23 11:41:37;;;;;;;1.00;0.90;;;11.80;99.90;;;;;;4952535;28;20675;-70
2022/12/23 11:44:06;;;;;;;0.80;0.70;;;11.80;99.90;;;;;;4952541;28;20227;-70
2022/12/23 11:46:35;;;;;;;0.90;0.80;;;11.80;99.90;;;;;;4952605;28;20212;-70
2022/12/23 11:49:17;;;;;;;0.80;0.80;;;11.80;99.90;;;;;;4951853;28;20626;-69
2022/12/23 11:51:47;;;;;;;1.00;0.90;;;11.80;99.90;;;;;;4952387;28;20209;-69
2022/12/23 11:54:21;;;;;;;1.75;0.82;;;11.80;99.90;;;;;;4952521;28;20459;-70
2022/12/23 11:56:51;;;;;;;1.08;0.98;;;11.80;99.90;;;;;;4952548;28;20214;-69
2022/12/23 11:59:30;;;;;;;1.00;0.80;;;11.90;99.90;;;;;;4951997;28;20284;-70
2022/12/23 12:02:00;;;;;;;1.77;1.45;;;11.90;99.90;;;;;;4952381;28;20240;-69
2022/12/23 12:04:31;;;;;;;1.70;1.08;;;11.90;99.90;;;;;;4939658;28;20207;-70
2022/12/23 12:06:59;;;;;;;1.10;0.90;;;11.80;99.90;;;;;;4945554;28;20201;-70
2022/12/23 12:09:28;;;;;;;1.30;1.10;;;11.80;99.90;;;;;;4931907;29;20321;-70
2022/12/23 12:11:59;;;;;;;1.08;0.90;;;11.80;99.90;;;;;;4931348;29;20614;-70
2022/12/23 12:14:32;;;;;;;1.17;0.80;;;11.80;99.90;;;;;;4931987;29;20217;-69
2022/12/23 12:17:07;;;;;;;1.20;1.10;;;11.80;99.90;;;;;;4931868;29;20213;-69
2022/12/23 12:19:41;;;;;;;1.10;0.90;;;11.80;99.90;;;;;;4947038;28;20208;-70
2022/12/23 12:22:15;;;;;;;1.23;1.10;;;11.70;99.90;;;;;;4947119;28;20637;-69
2022/12/23 12:24:48;;;;;;;1.20;1.08;;;11.70;99.90;;;;;;4933978;28;20205;-70
2022/12/23 12:27:15;;;;;;;1.65;1.20;;;11.70;99.90;;;;;;4950508;28;20264;-70
2022/12/23 12:29:46;;;;;;;1.65;1.00;;;11.70;99.90;;;;;;4947876;29;20230;-70
2022/12/23 12:32:21;;;;;;;1.25;1.00;;;11.70;99.90;;;;;;4931121;29;20236;-70
2022/12/23 12:34:54;;;;;;;1.30;1.00;;;11.70;99.90;;;;;;4950138;28;20210;-70
2022/12/23 12:37:29;;;;;;;1.20;0.98;;;11.70;99.90;;;;;;4969568;28;20239;-70
2022/12/23 12:40:02;;;;;;;1.70;1.08;;;11.70;99.90;;;;;;4969513;28;20227;-70
2022/12/23 12:42:35;;;;;;;1.55;1.25;;;11.70;99.90;;;;;;4969005;28;20239;-69
2022/12/23 12:45:17;;;;;;;1.60;1.30;;;11.70;99.90;;;;;;4969420;28;20250;-70
2022/12/23 12:47:52;;;;;;;2.55;0.90;;;11.70;99.90;;;;;;4969618;28;20238;-70
2022/12/23 12:50:24;;;;;;;1.30;1.20;;;11.70;99.90;;;;;;4969184;28;20226;-69
2022/12/23 12:52:53;;;;;;;1.48;1.00;;;11.70;99.90;;;;;;4959921;28;20223;-69
2022/12/23 12:55:24;;;;;;;2.13;1.10;;;11.80;99.90;;;;;;4948258;28;20220;-69
2022/12/23 12:57:54;;;;;;;1.00;0.90;;;11.70;99.90;;;;;;4950470;28;20731;-70
2022/12/23 13:00:23;;;;;;;1.60;0.90;;;11.70;99.90;;;;;;4949733;28;20209;-70
2022/12/23 13:03:22;;;;;;;1.55;1.10;;;11.70;99.90;;;;;;4950661;28;20212;-70
2022/12/23 13:05:59;;;;;;;1.70;1.20;;;11.70;99.90;;;;;;4950098;28;20688;-69
2022/12/23 13:08:38;;;;;;;1.40;1.10;;;11.80;99.90;;;;;;4949830;28;20261;-70
2022/12/23 13:11:12;;;;;;;1.48;1.15;;;11.80;99.90;;;;;;4949712;28;20378;-69
2022/12/23 13:13:45;;;;;;;1.20;1.00;;;11.80;99.90;;;;;;4950560;28;20760;-70
2022/12/23 13:16:20;;;;;;;1.00;0.90;;;11.70;99.90;;;;;;4950378;28;20564;-70
2022/12/23 13:18:55;;;;;;;1.20;1.00;;;11.80;99.90;;;;;;4949814;28;20227;-69
2022/12/23 13:21:31;;;;;;;1.10;1.00;;;11.80;99.90;;;;;;4950459;28;20560;-70
2022/12/23 13:24:07;;;;;;;1.23;1.10;;;11.80;99.90;;;;;;4954218;28;20219;-71
2022/12/23 13:26:38;;;;;;;1.23;1.13;;;11.80;99.90;;;;;;4953897;28;20483;-69
2022/12/23 13:29:33;;;;;;;1.30;1.10;;;11.90;99.90;;;;;;4953466;28;20228;-69
2022/12/23 13:32:11;;;;;;;1.10;1.00;;;11.90;99.90;;;;;;4954206;28;20219;-70
2022/12/23 13:34:48;;;;;;;1.10;1.00;;;11.90;99.90;;;;;;4954771;28;20272;-70
2022/12/23 13:37:23;;;;;;;1.10;1.00;;;11.90;99.90;;;;;;4954226;28;20235;-70
2022/12/23 13:39:56;;;;;;;1.13;1.02;;;12.00;99.90;;;;;;4954704;28;20215;-69
2022/12/23 13:42:29;;;;;;;1.42;1.30;;;12.00;99.90;;;;;;4954420;28;20201;-70